createdAt,value
2023-01-01T00:05:58.049Z,977.77
2023-01-01T00:12:24.095Z,977.73
2023-01-01T00:18:49.783Z,977.7
2023-01-01T00:25:12.066Z,977.65
2023-01-01T00:31:31.852Z,977.64
2023-01-01T00:38:01.800Z,977.67
2023-01-01T00:44:25.645Z,977.7
2023-01-01T00:50:54.257Z,977.68
2023-01-01T00:57:23.175Z,977.67
2023-01-01T01:03:43.886Z,977.61
2023-01-01T01:10:08.391Z,977.5
2023-01-01T01:16:30.336Z,977.41
2023-01-01T01:22:56.772Z,977.5
2023-01-01T01:29:21.155Z,977.55
2023-01-01T01:35:56.153Z,977.72
2023-01-01T01:42:21.816Z,977.8
2023-01-01T01:48:58.787Z,977.81
2023-01-01T01:55:38.783Z,977.79
2023-01-01T02:02:20.029Z,977.78
2023-01-01T02:09:11.225Z,977.86
2023-01-01T02:15:36.219Z,977.89
2023-01-01T02:22:44.913Z,977.93
2023-01-01T02:29:54.790Z,977.94
2023-01-01T02:36:46.813Z,977.9
2023-01-01T02:43:28.133Z,977.88
2023-01-01T02:50:06.821Z,977.9
2023-01-01T02:57:04.945Z,977.91
2023-01-01T03:04:15.860Z,977.89
2023-01-01T03:11:14.340Z,977.91
2023-01-01T03:18:12.309Z,977.94
2023-01-01T03:25:05.082Z,977.99
2023-01-01T03:32:00.961Z,978.07
2023-01-01T03:38:53.838Z,977.98
2023-01-01T03:45:59.283Z,977.92
2023-01-01T03:52:38.164Z,977.97
2023-01-01T03:59:35.344Z,978.03
2023-01-01T04:06:33.956Z,978.01
2023-01-01T04:13:10.858Z,978.02
2023-01-01T04:19:42.103Z,978.13
2023-01-01T04:26:06.479Z,978.17
2023-01-01T04:32:42.241Z,978.13
2023-01-01T04:39:02.858Z,978.22
2023-01-01T04:45:25.143Z,978.29
2023-01-01T04:51:53.392Z,978.35
2023-01-01T04:58:21.761Z,978.36
2023-01-01T05:04:43.744Z,978.36
2023-01-01T05:11:23.842Z,978.49
2023-01-01T05:17:59.795Z,978.5
2023-01-01T05:24:34.193Z,978.59
2023-01-01T05:31:00.851Z,978.65
2023-01-01T05:37:33.757Z,978.67
2023-01-01T05:44:06.888Z,978.63
2023-01-01T05:50:32.213Z,978.67
2023-01-01T05:57:16.860Z,978.68
2023-01-01T06:03:41.404Z,978.72
2023-01-01T06:10:06.896Z,978.78
2023-01-01T06:16:32.286Z,978.86
2023-01-01T06:23:03.094Z,978.91
2023-01-01T06:29:32.968Z,978.93
2023-01-01T06:35:56.960Z,978.99
2023-01-01T06:42:34.941Z,978.85
2023-01-01T06:49:13.913Z,978.95
2023-01-01T06:55:39.284Z,979.09
2023-01-01T07:02:08.748Z,979.19
2023-01-01T07:08:42.941Z,979.31
2023-01-01T07:15:05.026Z,979.41
2023-01-01T07:21:36.973Z,979.38
2023-01-01T07:28:02.936Z,979.33
2023-01-01T07:34:31.905Z,979.42
2023-01-01T07:40:55.474Z,979.41
2023-01-01T07:47:20.964Z,979.39
2023-01-01T07:53:49.475Z,979.49
2023-01-01T08:00:17.378Z,979.58
2023-01-01T08:06:45.971Z,979.55
2023-01-01T08:13:14.941Z,979.74
2023-01-01T08:19:44.141Z,979.67
2023-01-01T08:26:05.165Z,979.64
2023-01-01T08:32:33.085Z,979.76
2023-01-01T08:38:57.985Z,979.9
2023-01-01T08:45:25.094Z,980.01
2023-01-01T08:51:48.592Z,980.1
2023-01-01T08:58:10.771Z,980.03
2023-01-01T09:04:43.166Z,980.05
2023-01-01T09:11:16.111Z,980.06
2023-01-01T09:17:48.029Z,980.02
2023-01-01T09:24:15.155Z,979.96
2023-01-01T09:30:46.031Z,980.12
2023-01-01T09:37:16.268Z,980.28
2023-01-01T09:44:03.149Z,980.36
2023-01-01T09:51:06.517Z,980.36
2023-01-01T09:58:07.191Z,980.39
2023-01-01T10:04:54.256Z,980.29
2023-01-01T10:11:57.382Z,980.32
2023-01-01T10:19:05.531Z,980.38
2023-01-01T10:26:00.161Z,980.32
2023-01-01T10:33:09.191Z,980.19
2023-01-01T10:39:51.303Z,980.24
2023-01-01T10:46:33.296Z,980.32
2023-01-01T10:53:25.314Z,980.2
2023-01-01T11:00:08.188Z,980.19
2023-01-01T11:07:05.847Z,980.12
2023-01-01T11:13:45.519Z,980
2023-01-01T11:20:40.568Z,979.84
2023-01-01T11:27:28.081Z,979.72
2023-01-01T11:34:33.759Z,979.76
2023-01-01T11:41:32.286Z,979.87
2023-01-01T11:48:22.181Z,979.93
2023-01-01T11:55:15.238Z,979.8
2023-01-01T12:02:12.576Z,979.82
2023-01-01T12:09:33.308Z,979.81
2023-01-01T12:16:33.646Z,979.79
2023-01-01T12:23:40.460Z,979.62
2023-01-01T12:30:35.993Z,979.66
2023-01-01T12:37:42.913Z,979.6
2023-01-01T12:44:51.256Z,979.51
2023-01-01T12:52:00.195Z,979.58
2023-01-01T12:58:56.573Z,979.66
2023-01-01T13:05:45.471Z,979.75
2023-01-01T13:12:36.425Z,979.77
2023-01-01T13:19:28.849Z,979.54
2023-01-01T13:26:14.995Z,979.44
2023-01-01T13:32:58.825Z,979.42
2023-01-01T13:39:42.608Z,979.39
2023-01-01T13:46:37.464Z,979.4
2023-01-01T13:53:50.684Z,979.45
2023-01-01T14:01:02.881Z,979.49
2023-01-01T14:07:56.652Z,979.42
2023-01-01T14:14:35.314Z,979.46
2023-01-01T14:21:17.867Z,979.41
2023-01-01T14:28:00.691Z,979.34
2023-01-01T14:35:00.315Z,979.43
2023-01-01T14:42:03.436Z,979.42
2023-01-01T14:48:56.132Z,979.29
2023-01-01T14:55:36.536Z,979.28
2023-01-01T15:02:37.949Z,979.26
2023-01-01T15:09:21.081Z,979.19
2023-01-01T15:16:03.296Z,979.23
2023-01-01T15:22:58.344Z,979.27
2023-01-01T15:29:56.596Z,979.4
2023-01-01T15:36:38.580Z,979.39
2023-01-01T15:43:32.629Z,979.38
2023-01-01T15:50:25.549Z,979.16
2023-01-01T15:57:12.389Z,979.03
2023-01-01T16:04:03.723Z,978.88
2023-01-01T16:10:38.383Z,978.65
2023-01-01T16:17:11.357Z,978.67
2023-01-01T16:23:46.856Z,978.69
2023-01-01T16:30:14.436Z,978.65
2023-01-01T16:36:48.444Z,978.62
2023-01-01T16:43:14.965Z,978.55
2023-01-01T16:49:47.967Z,978.55
2023-01-01T16:56:12.534Z,978.52
2023-01-01T17:02:37.505Z,978.4
2023-01-01T17:09:02.563Z,978.33
2023-01-01T17:15:36.789Z,978.07
2023-01-01T17:22:06.681Z,978.08
2023-01-01T17:28:38.906Z,978.08
2023-01-01T17:35:06.505Z,978.13
2023-01-01T17:41:28.048Z,978.07
2023-01-01T17:47:56.535Z,978.06
2023-01-01T17:54:26.496Z,978.01
2023-01-01T18:00:50.954Z,977.96
2023-01-01T18:07:24.147Z,977.93
2023-01-01T18:13:48.258Z,977.91
2023-01-01T18:20:13.514Z,977.86
2023-01-01T18:26:52.735Z,977.66
2023-01-01T18:33:22.539Z,977.78
2023-01-01T18:39:50.849Z,977.69
2023-01-01T18:46:35.483Z,977.69
2023-01-01T18:53:12.062Z,977.74
2023-01-01T18:59:57.923Z,977.66
2023-01-01T19:06:33.314Z,977.61
2023-01-01T19:13:15.423Z,977.56
2023-01-01T19:20:02.193Z,977.54
2023-01-01T19:26:52.075Z,977.45
2023-01-01T19:33:35.485Z,977.43
2023-01-01T19:39:57.628Z,977.33
2023-01-01T19:46:28.489Z,977.4
2023-01-01T19:52:51.530Z,977.36
2023-01-01T19:59:17.686Z,977.36
2023-01-01T20:05:46.409Z,977.38
2023-01-01T20:12:12.668Z,977.29
2023-01-01T20:18:38.485Z,977.22
2023-01-01T20:25:02.557Z,977.23
2023-01-01T20:31:27.965Z,977.25
2023-01-01T20:37:54.850Z,977.21
2023-01-01T20:44:23.674Z,977.2
2023-01-01T20:50:57.293Z,977.24
2023-01-01T20:57:28.729Z,977.28
2023-01-01T21:03:55.032Z,977.31
2023-01-01T21:10:21.963Z,977.24
2023-01-01T21:16:57.070Z,977.27
2023-01-01T21:23:28.882Z,977.16
2023-01-01T21:30:09.578Z,977.15
2023-01-01T21:36:57.665Z,977.34
2023-01-01T21:43:43.203Z,977.25
2023-01-01T21:50:37.837Z,977.04
2023-01-01T21:57:29.749Z,977.05
2023-01-01T22:04:11.597Z,977.15
2023-01-01T22:10:57.997Z,977.19
2023-01-01T22:17:38.004Z,977.2
2023-01-01T22:24:15.524Z,977.2
2023-01-01T22:31:03.539Z,977.26
2023-01-01T22:37:56.932Z,977.3
2023-01-01T22:44:40.764Z,977.5
2023-01-01T22:51:22.897Z,977.47
2023-01-01T22:57:55.918Z,977.38
2023-01-01T23:04:25.799Z,977.39
2023-01-01T23:10:52.513Z,977.21
2023-01-01T23:17:16.877Z,977.28
2023-01-01T23:23:49.196Z,977.27
2023-01-01T23:30:27.552Z,977.17
2023-01-01T23:36:56.186Z,977.05
2023-01-01T23:43:29.881Z,977.01
2023-01-01T23:50:02.527Z,977.02
2023-01-01T23:56:29.895Z,976.94
